createdAt,value
2018-07-14T00:49:46.587Z,16.60
2018-07-14T00:50:19.310Z,16.70
2018-07-14T00:50:52.042Z,16.70
2018-07-14T00:51:24.878Z,16.70
2018-07-14T00:51:57.723Z,16.70
2018-07-14T00:52:30.506Z,16.70
2018-07-14T00:53:03.239Z,16.70
2018-07-14T00:53:35.963Z,16.70
2018-07-14T00:54:08.678Z,16.70
2018-07-14T00:54:41.395Z,16.70
2018-07-14T00:55:14.122Z,16.70
2018-07-14T00:55:46.822Z,16.70
2018-07-14T00:56:19.514Z,16.70
2018-07-14T00:56:52.230Z,16.70
2018-07-14T00:57:24.943Z,16.70
2018-07-14T00:57:57.849Z,16.70
2018-07-14T00:58:30.746Z,16.70
2018-07-14T00:59:03.491Z,16.70
2018-07-14T00:59:36.351Z,16.70
2018-07-14T01:00:09.126Z,16.70
2018-07-14T01:00:41.918Z,16.70
2018-07-14T01:01:14.654Z,16.70
2018-07-14T01:01:47.342Z,16.60
2018-07-14T01:02:20.070Z,16.70
2018-07-14T01:02:52.786Z,16.70
2018-07-14T01:03:25.514Z,16.70
2018-07-14T01:03:58.203Z,16.70
2018-07-14T01:04:30.916Z,16.70
2018-07-14T01:05:03.611Z,16.70
2018-07-14T01:05:36.360Z,16.80
2018-07-14T01:06:09.062Z,16.70
2018-07-14T01:06:41.778Z,16.70
2018-07-14T01:07:14.475Z,16.70
2018-07-14T01:07:47.210Z,16.70
2018-07-14T01:08:19.935Z,16.70
2018-07-14T01:08:52.631Z,16.70
2018-07-14T01:09:25.323Z,16.70
2018-07-14T01:09:58.039Z,16.70
2018-07-14T01:10:30.791Z,16.80
2018-07-14T01:11:03.575Z,16.80
2018-07-14T01:11:36.310Z,16.80
2018-07-14T01:12:09.030Z,16.70
2018-07-14T01:12:41.764Z,16.80
2018-07-14T01:13:14.478Z,16.80
2018-07-14T01:13:47.171Z,16.80
2018-07-14T01:14:52.554Z,16.70
2018-07-14T01:15:25.254Z,16.80
2018-07-14T01:15:57.983Z,16.80
2018-07-14T01:16:30.738Z,16.80
2018-07-14T01:17:03.535Z,16.70
2018-07-14T01:17:36.289Z,16.70
2018-07-14T01:18:08.979Z,16.70
2018-07-14T01:18:41.678Z,16.80
2018-07-14T01:19:14.376Z,16.70
2018-07-14T01:19:47.331Z,16.70
2018-07-14T01:20:20.039Z,16.70
2018-07-14T01:20:52.775Z,16.70
2018-07-14T01:21:25.477Z,16.70
2018-07-14T01:21:58.234Z,16.60
2018-07-14T01:22:30.930Z,16.70
2018-07-14T01:23:03.642Z,16.60
2018-07-14T01:23:36.339Z,16.60
2018-07-14T01:24:09.096Z,16.60
2018-07-14T01:24:41.815Z,16.60
2018-07-14T01:25:14.591Z,16.60
2018-07-14T01:25:47.314Z,16.60
2018-07-14T01:26:20.050Z,16.60
2018-07-14T01:26:52.782Z,16.60
2018-07-14T01:27:25.595Z,16.60
2018-07-14T01:27:58.334Z,16.60
2018-07-14T01:28:31.020Z,16.70
2018-07-14T01:29:03.746Z,16.70
2018-07-14T01:29:36.467Z,16.70
2018-07-14T01:30:09.726Z,16.70
2018-07-14T01:30:42.458Z,16.70
2018-07-14T01:31:15.142Z,16.70
2018-07-14T01:31:47.863Z,16.70
2018-07-14T01:32:20.715Z,16.70
2018-07-14T01:32:53.450Z,16.70
2018-07-14T01:33:26.199Z,16.70
2018-07-14T01:33:58.934Z,16.60
2018-07-14T01:34:31.731Z,16.70
2018-07-14T01:35:05.202Z,16.70
2018-07-14T01:35:37.918Z,16.60
2018-07-14T01:36:10.640Z,16.60
2018-07-14T01:36:43.386Z,16.60
2018-07-14T01:37:16.122Z,16.60
2018-07-14T01:37:48.862Z,16.60
2018-07-14T01:38:21.590Z,16.60
2018-07-14T01:38:54.310Z,16.60
2018-07-14T01:39:27.026Z,16.60
2018-07-14T01:39:59.706Z,16.60
2018-07-14T01:40:32.481Z,16.60
2018-07-14T01:41:05.182Z,16.50
2018-07-14T01:41:37.870Z,16.50
2018-07-14T01:42:10.654Z,16.50
2018-07-14T01:42:43.375Z,16.50
2018-07-14T01:43:16.086Z,16.60
2018-07-14T01:43:49.477Z,16.50
2018-07-14T01:44:22.198Z,16.50
2018-07-14T01:44:54.923Z,16.50
2018-07-14T01:45:27.674Z,16.50
2018-07-14T01:46:00.375Z,16.50
2018-07-14T01:46:33.092Z,16.50
2018-07-14T01:47:05.808Z,16.50
2018-07-14T01:47:38.595Z,16.60
2018-07-14T01:48:11.294Z,16.60
2018-07-14T01:48:43.987Z,16.60
2018-07-14T01:49:17.023Z,16.60
2018-07-14T01:49:49.734Z,16.60
2018-07-14T01:50:22.471Z,16.50
2018-07-14T01:50:55.238Z,16.50
2018-07-14T01:51:27.994Z,16.50
2018-07-14T01:52:00.763Z,16.50
2018-07-14T01:52:33.459Z,16.50
2018-07-14T01:53:06.383Z,16.50
2018-07-14T01:53:39.086Z,16.50
2018-07-14T01:54:11.833Z,16.50
2018-07-14T01:54:44.570Z,16.50
2018-07-14T01:55:17.265Z,16.50
2018-07-14T01:55:50.037Z,16.40
2018-07-14T01:56:22.750Z,16.40
2018-07-14T01:56:55.735Z,16.50
2018-07-14T01:57:28.450Z,16.40
2018-07-14T01:58:01.154Z,16.40
2018-07-14T01:58:33.862Z,16.40
2018-07-14T01:59:06.571Z,16.40
2018-07-14T01:59:39.338Z,16.40
2018-07-14T02:00:12.112Z,16.40
2018-07-14T02:00:44.817Z,16.40
2018-07-14T02:01:17.534Z,16.40
2018-07-14T02:01:50.255Z,16.40
2018-07-14T02:02:22.999Z,16.40
2018-07-14T02:02:55.806Z,16.40
2018-07-14T02:03:28.546Z,16.30
2018-07-14T02:04:33.911Z,16.40
2018-07-14T02:05:07.002Z,16.40
2018-07-14T02:05:39.755Z,16.30
2018-07-14T02:06:12.463Z,16.30
2018-07-14T02:06:45.182Z,16.30
2018-07-14T02:07:17.927Z,16.30
2018-07-14T02:07:50.840Z,16.30
2018-07-14T02:08:23.554Z,16.30
2018-07-14T02:08:56.286Z,16.30
2018-07-14T02:09:28.993Z,16.30
2018-07-14T02:10:01.707Z,16.30
2018-07-14T02:10:34.450Z,16.30
2018-07-14T02:11:07.254Z,16.30
2018-07-14T02:11:39.999Z,16.30
2018-07-14T02:12:12.710Z,16.30
2018-07-14T02:12:45.402Z,16.30
2018-07-14T02:13:18.138Z,16.20
2018-07-14T02:13:50.870Z,16.30
2018-07-14T02:14:23.598Z,16.30
2018-07-14T02:14:56.338Z,16.30
2018-07-14T02:15:29.086Z,16.30
2018-07-14T02:16:01.786Z,16.30
2018-07-14T02:16:34.510Z,16.30
2018-07-14T02:17:07.867Z,16.30
2018-07-14T02:17:40.591Z,16.20
2018-07-14T02:18:13.302Z,16.30
2018-07-14T02:18:46.031Z,16.20
2018-07-14T02:19:18.735Z,16.20
2018-07-14T02:19:51.455Z,16.20
2018-07-14T02:20:24.199Z,16.30
2018-07-14T02:20:56.926Z,16.30
2018-07-14T02:21:29.719Z,16.30
2018-07-14T02:22:02.443Z,16.30
2018-07-14T02:22:35.170Z,16.30
2018-07-14T02:23:07.898Z,16.30
2018-07-14T02:23:40.662Z,16.30
2018-07-14T02:24:13.358Z,16.30
2018-07-14T02:24:46.059Z,16.30
2018-07-14T02:25:18.775Z,16.30
2018-07-14T02:25:51.486Z,16.30
2018-07-14T02:26:24.162Z,16.30
2018-07-14T02:26:56.872Z,16.30
2018-07-14T02:27:29.592Z,16.30
2018-07-14T02:28:02.334Z,16.30
2018-07-14T02:28:35.033Z,16.30
2018-07-14T02:29:07.839Z,16.40
2018-07-14T02:29:40.558Z,16.30
2018-07-14T02:30:13.279Z,16.30
2018-07-14T02:30:45.978Z,16.30
2018-07-14T02:31:18.731Z,16.30
2018-07-14T02:31:51.438Z,16.30
2018-07-14T02:32:24.170Z,16.30
2018-07-14T02:32:56.879Z,16.30
2018-07-14T02:33:29.570Z,16.20
2018-07-14T02:34:02.243Z,16.20
2018-07-14T02:34:34.966Z,16.20
2018-07-14T02:35:07.678Z,16.20
2018-07-14T02:35:40.386Z,16.20
2018-07-14T02:36:13.091Z,16.20
2018-07-14T02:36:45.815Z,16.20
2018-07-14T02:37:18.558Z,16.20
2018-07-14T02:37:51.298Z,16.20
2018-07-14T02:38:24.034Z,16.20
2018-07-14T02:38:56.747Z,16.20
2018-07-14T02:39:29.443Z,16.20
2018-07-14T02:40:02.123Z,16.10
2018-07-14T02:40:34.835Z,16.10
2018-07-14T02:41:07.539Z,16.10
2018-07-14T02:41:40.276Z,16.20
2018-07-14T02:42:12.975Z,16.10
2018-07-14T02:42:45.670Z,16.10
2018-07-14T02:43:18.381Z,16.10
2018-07-14T02:43:51.123Z,16.10
2018-07-14T02:44:23.819Z,16.20
2018-07-14T02:44:56.596Z,16.10
2018-07-14T02:45:29.314Z,16.10
2018-07-14T02:46:02.050Z,16.10
2018-07-14T02:46:34.844Z,16.10
2018-07-14T02:47:07.575Z,16.10
2018-07-14T02:47:40.279Z,16.10
2018-07-14T02:48:12.986Z,16.10
2018-07-14T02:48:45.702Z,16.10
2018-07-14T02:49:18.627Z,16.10
2018-07-14T02:49:51.307Z,16.10
2018-07-14T02:50:24.019Z,16.00
2018-07-14T02:50:56.734Z,16.00
2018-07-14T02:51:29.451Z,16.00
2018-07-14T02:52:02.172Z,16.00
2018-07-14T02:52:34.863Z,16.00
2018-07-14T02:53:07.571Z,16.00
2018-07-14T02:53:40.298Z,16.00
2018-07-14T02:54:13.023Z,16.00
2018-07-14T02:54:45.962Z,16.00
2018-07-14T02:55:18.662Z,16.00
2018-07-14T02:55:51.366Z,16.00
2018-07-14T02:56:24.082Z,16.00
2018-07-14T02:56:56.802Z,16.00
2018-07-14T02:57:29.491Z,16.00
2018-07-14T02:58:02.170Z,16.00
2018-07-14T02:58:34.890Z,16.00
2018-07-14T02:59:07.582Z,16.00
2018-07-14T02:59:40.313Z,16.00
2018-07-14T03:00:13.074Z,16.00
2018-07-14T03:00:45.802Z,16.00
2018-07-14T03:01:18.515Z,16.00
2018-07-14T03:01:51.226Z,16.00
2018-07-14T03:02:23.928Z,16.00
2018-07-14T03:02:56.686Z,16.00
2018-07-14T03:03:29.395Z,16.00
2018-07-14T03:04:02.088Z,16.00
2018-07-14T03:04:34.786Z,16.00
2018-07-14T03:05:07.537Z,15.90
2018-07-14T03:05:40.268Z,15.90
2018-07-14T03:06:12.990Z,15.90
2018-07-14T03:06:45.679Z,15.90
2018-07-14T03:07:18.419Z,15.90
2018-07-14T03:07:51.118Z,15.90
2018-07-14T03:08:23.778Z,15.90
2018-07-14T03:08:56.482Z,15.90
2018-07-14T03:09:29.184Z,15.90
2018-07-14T03:10:01.919Z,15.90
2018-07-14T03:10:34.638Z,15.90
2018-07-14T03:11:07.370Z,15.90
2018-07-14T03:11:40.110Z,15.90
2018-07-14T03:12:45.705Z,15.90
2018-07-14T03:13:18.376Z,15.90
2018-07-14T03:13:51.115Z,15.90
2018-07-14T03:14:23.875Z,15.90
2018-07-14T03:14:56.591Z,15.90
2018-07-14T03:15:29.319Z,15.90
2018-07-14T03:16:02.069Z,15.90
2018-07-14T03:16:34.816Z,15.90
2018-07-14T03:17:07.514Z,15.90
2018-07-14T03:17:40.226Z,15.90
2018-07-14T03:18:12.917Z,15.90
2018-07-14T03:18:45.598Z,15.90
2018-07-14T03:19:18.378Z,15.90
2018-07-14T03:19:51.022Z,15.90
2018-07-14T03:20:23.731Z,15.90
2018-07-14T03:20:56.455Z,15.90
2018-07-14T03:21:29.162Z,15.80
2018-07-14T03:22:01.904Z,15.90
2018-07-14T03:22:34.622Z,15.80
2018-07-14T03:23:07.502Z,15.80
2018-07-14T03:23:40.224Z,15.90
2018-07-14T03:24:12.958Z,15.90
2018-07-14T03:24:45.634Z,15.90
2018-07-14T03:25:18.339Z,15.90
2018-07-14T03:25:51.069Z,15.90
2018-07-14T03:26:23.898Z,15.90
2018-07-14T03:26:56.618Z,15.90
2018-07-14T03:27:29.386Z,15.90
2018-07-14T03:28:02.059Z,15.90
2018-07-14T03:28:34.775Z,15.90
2018-07-14T03:29:07.484Z,15.90
2018-07-14T03:29:40.246Z,15.90
2018-07-14T03:30:12.950Z,16.00
2018-07-14T03:30:45.634Z,15.90
2018-07-14T03:31:18.350Z,15.90
2018-07-14T03:31:51.078Z,15.90
2018-07-14T03:32:23.833Z,16.00
2018-07-14T03:32:56.558Z,16.00
2018-07-14T03:33:29.235Z,16.00
2018-07-14T03:34:01.950Z,16.00
2018-07-14T03:34:34.642Z,16.00
2018-07-14T03:35:07.351Z,16.00
2018-07-14T03:35:40.064Z,16.00
2018-07-14T03:36:12.766Z,16.10
2018-07-14T03:36:45.483Z,16.10
2018-07-14T03:37:18.186Z,16.10
2018-07-14T03:37:50.926Z,16.10
2018-07-14T03:38:23.677Z,16.10
2018-07-14T03:38:56.358Z,16.10
2018-07-14T03:39:29.054Z,16.10
2018-07-14T03:40:01.739Z,16.10
2018-07-14T03:40:34.482Z,16.10
2018-07-14T03:41:07.739Z,16.10
2018-07-14T03:41:40.434Z,16.10
2018-07-14T03:42:13.146Z,16.10
2018-07-14T03:42:45.826Z,16.10
2018-07-14T03:43:18.559Z,16.10
2018-07-14T03:43:51.314Z,16.10
2018-07-14T03:44:23.989Z,16.20
2018-07-14T03:44:56.699Z,16.20
2018-07-14T03:45:29.458Z,16.20
2018-07-14T03:46:02.169Z,16.20
2018-07-14T03:46:34.902Z,16.20
2018-07-14T03:47:07.635Z,16.20
2018-07-14T03:47:40.342Z,16.20
2018-07-14T03:48:13.052Z,16.20
2018-07-14T03:48:45.742Z,16.20
2018-07-14T03:49:18.498Z,16.20
2018-07-14T03:49:51.215Z,16.20
2018-07-14T03:50:23.940Z,16.20
2018-07-14T03:50:56.682Z,16.20
2018-07-14T03:51:29.396Z,16.30
2018-07-14T03:52:02.115Z,16.20
2018-07-14T03:52:35.235Z,16.30
2018-07-14T03:53:07.979Z,16.30
2018-07-14T03:53:40.659Z,16.30
2018-07-14T03:54:13.373Z,16.30
2018-07-14T03:54:46.086Z,16.30
2018-07-14T03:55:18.846Z,16.30
2018-07-14T03:55:51.571Z,16.30
2018-07-14T03:56:24.296Z,16.30
2018-07-14T03:56:57.043Z,16.30
2018-07-14T03:57:29.742Z,16.30
2018-07-14T03:58:02.471Z,16.30
2018-07-14T03:58:35.183Z,16.30
2018-07-14T03:59:07.891Z,16.30
2018-07-14T03:59:40.634Z,16.30
2018-07-14T04:00:13.397Z,16.30
2018-07-14T04:00:46.114Z,16.30
2018-07-14T04:01:18.834Z,16.30
2018-07-14T04:02:24.169Z,16.30
2018-07-14T04:03:29.490Z,16.30
2018-07-14T04:04:02.182Z,16.30
2018-07-14T04:04:34.872Z,16.30
2018-07-14T04:05:07.550Z,16.30
2018-07-14T04:05:40.251Z,16.30
2018-07-14T04:06:13.018Z,16.30
2018-07-14T04:06:45.711Z,16.30
2018-07-14T04:07:18.691Z,16.30
2018-07-14T04:07:51.418Z,16.30
2018-07-14T04:08:24.130Z,16.30
2018-07-14T04:08:56.819Z,16.30
2018-07-14T04:09:29.511Z,16.30
2018-07-14T04:10:02.461Z,16.30
2018-07-14T04:10:35.169Z,16.30
2018-07-14T04:11:40.499Z,16.30
2018-07-14T04:12:13.223Z,16.30
2018-07-14T04:12:45.928Z,16.30
2018-07-14T04:13:18.646Z,16.30
2018-07-14T04:13:51.378Z,16.30
2018-07-14T04:14:24.086Z,16.40
2018-07-14T04:14:56.783Z,16.40
2018-07-14T04:15:29.474Z,16.40
2018-07-14T04:16:02.354Z,16.40
2018-07-14T04:16:35.099Z,16.50
2018-07-14T04:17:07.806Z,16.50
2018-07-14T04:17:40.522Z,16.50
2018-07-14T04:18:13.218Z,16.50
2018-07-14T04:18:45.931Z,16.50
2018-07-14T04:19:18.698Z,16.60
2018-07-14T04:19:51.382Z,16.60
2018-07-14T04:20:24.066Z,16.60
2018-07-14T04:20:56.795Z,16.60
2018-07-14T04:21:29.489Z,16.60
2018-07-14T04:22:02.214Z,16.70
2018-07-14T04:22:34.922Z,16.70
2018-07-14T04:23:07.610Z,16.70
2018-07-14T04:23:40.315Z,16.70
2018-07-14T04:24:13.021Z,16.70
2018-07-14T04:24:45.742Z,16.70
2018-07-14T04:25:18.422Z,16.70
2018-07-14T04:25:51.098Z,16.70
2018-07-14T04:26:23.799Z,16.70
2018-07-14T04:26:56.499Z,16.70
2018-07-14T04:27:29.223Z,16.70
2018-07-14T04:28:02.045Z,16.70
2018-07-14T04:28:34.730Z,16.70
2018-07-14T04:29:07.542Z,16.70
2018-07-14T04:29:40.240Z,16.80
2018-07-14T04:30:12.963Z,16.80
2018-07-14T04:30:45.698Z,16.80
2018-07-14T04:31:18.442Z,16.80
2018-07-14T04:31:51.288Z,16.80
2018-07-14T04:32:24.015Z,16.80
2018-07-14T04:32:56.814Z,16.80
2018-07-14T04:34:02.159Z,16.80
2018-07-14T04:34:34.887Z,16.90
2018-07-14T04:35:07.590Z,16.90
2018-07-14T04:35:40.299Z,16.90
2018-07-14T04:36:13.006Z,16.90
2018-07-14T04:36:45.714Z,16.90
2018-07-14T04:37:51.042Z,16.90
2018-07-14T04:38:23.818Z,16.90
2018-07-14T04:38:56.503Z,17.00
2018-07-14T04:39:29.230Z,17.00
2018-07-14T04:40:01.939Z,17.00
2018-07-14T04:40:34.646Z,17.00
2018-07-14T04:41:07.355Z,17.00
2018-07-14T04:41:40.079Z,17.00
2018-07-14T04:42:45.423Z,17.10
2018-07-14T04:43:18.178Z,17.10
2018-07-14T04:43:50.906Z,17.20
2018-07-14T04:44:23.606Z,17.20
2018-07-14T04:44:56.318Z,17.20
2018-07-14T04:45:29.014Z,17.20
2018-07-14T04:46:01.726Z,17.20
2018-07-14T04:46:34.430Z,17.20
2018-07-14T04:47:07.122Z,17.20
2018-07-14T04:47:39.839Z,17.20
2018-07-14T04:48:12.546Z,17.30
2018-07-14T04:48:45.283Z,17.30
2018-07-14T04:49:18.102Z,17.30
2018-07-14T04:49:50.798Z,17.30
2018-07-14T04:50:23.518Z,17.40
2018-07-14T04:50:56.455Z,17.40
2018-07-14T04:51:29.174Z,17.40
2018-07-14T04:52:01.919Z,17.50
2018-07-14T04:52:34.690Z,17.50
2018-07-14T04:53:07.388Z,17.50
2018-07-14T04:53:40.062Z,17.60
2018-07-14T04:54:12.787Z,17.60
2018-07-14T04:54:45.494Z,17.60
2018-07-14T04:55:18.287Z,17.60
2018-07-14T04:55:50.997Z,17.70
2018-07-14T04:56:23.694Z,17.70
2018-07-14T04:56:56.442Z,17.70
2018-07-14T04:57:29.166Z,17.80
2018-07-14T04:58:01.866Z,17.80
2018-07-14T04:59:07.259Z,17.90
2018-07-14T04:59:39.962Z,17.90
2018-07-14T05:00:12.695Z,17.90
2018-07-14T05:00:45.398Z,18.00
2018-07-14T05:01:18.117Z,18.00
2018-07-14T05:01:50.822Z,18.00
2018-07-14T05:02:23.542Z,18.10
2018-07-14T05:03:28.898Z,18.10
2018-07-14T05:04:01.595Z,18.20
2018-07-14T05:04:34.318Z,18.20
2018-07-14T05:05:07.058Z,18.20
2018-07-14T05:05:39.792Z,18.20
2018-07-14T05:06:12.501Z,18.30
2018-07-14T05:06:45.211Z,18.30
2018-07-14T05:07:17.919Z,18.30
2018-07-14T05:07:50.605Z,18.40
2018-07-14T05:08:23.598Z,18.40
2018-07-14T05:08:56.362Z,18.40
2018-07-14T05:09:29.102Z,18.50
2018-07-14T05:10:01.831Z,18.50
2018-07-14T05:10:34.542Z,18.60
2018-07-14T05:11:07.481Z,18.70
2018-07-14T05:11:40.186Z,18.70
2018-07-14T05:12:12.906Z,18.70
2018-07-14T05:12:45.622Z,18.70
2018-07-14T05:13:18.583Z,18.80
2018-07-14T05:13:51.315Z,18.80
2018-07-14T05:14:24.055Z,18.80
2018-07-14T05:14:56.758Z,18.80
2018-07-14T05:15:29.484Z,18.90
2018-07-14T05:16:02.167Z,18.90
2018-07-14T05:16:34.925Z,19.00
2018-07-14T05:17:07.630Z,19.00
2018-07-14T05:17:40.303Z,19.00
2018-07-14T05:18:12.983Z,19.10
2018-07-14T05:18:45.687Z,19.10
2018-07-14T05:19:18.551Z,19.10
2018-07-14T05:19:51.246Z,19.10
2018-07-14T05:20:23.991Z,19.20
2018-07-14T05:20:56.695Z,19.20
2018-07-14T05:21:29.456Z,19.20
2018-07-14T05:22:02.151Z,19.20
2018-07-14T05:22:34.867Z,19.30
2018-07-14T05:23:07.601Z,19.30
2018-07-14T05:23:40.298Z,19.30
2018-07-14T05:24:13.023Z,19.40
2018-07-14T05:24:45.734Z,19.40
2018-07-14T05:25:18.550Z,19.40
2018-07-14T05:25:51.247Z,19.50
2018-07-14T05:26:23.939Z,19.50
2018-07-14T05:26:56.706Z,19.50
2018-07-14T05:27:29.490Z,19.60
2018-07-14T05:28:02.204Z,19.70
2018-07-14T05:28:34.892Z,19.80
2018-07-14T05:29:07.607Z,19.80
2018-07-14T05:29:40.315Z,19.80
2018-07-14T05:30:13.027Z,19.80
2018-07-14T05:30:45.767Z,19.90
2018-07-14T05:31:18.979Z,19.90
2018-07-14T05:31:51.703Z,20.00
2018-07-14T05:32:24.435Z,20.10
2018-07-14T05:32:57.195Z,20.00
2018-07-14T05:33:29.882Z,20.00
2018-07-14T05:34:02.614Z,20.10
2018-07-14T05:34:35.502Z,20.10
2018-07-14T05:35:08.260Z,20.20
2018-07-14T05:35:40.970Z,20.20
2018-07-14T05:36:13.659Z,20.30
2018-07-14T05:36:46.477Z,20.40
2018-07-14T05:37:19.232Z,20.40
2018-07-14T05:37:52.091Z,20.40
2018-07-14T05:38:24.859Z,20.40
2018-07-14T05:38:57.634Z,20.50
2018-07-14T05:39:30.354Z,20.50
2018-07-14T05:40:03.137Z,20.50
2018-07-14T05:40:35.842Z,20.60
2018-07-14T05:41:08.534Z,20.60
2018-07-14T05:41:41.231Z,20.60
2018-07-14T05:42:13.918Z,20.60
2018-07-14T05:42:46.647Z,20.60
2018-07-14T05:43:19.412Z,20.70
2018-07-14T05:43:52.137Z,20.70
2018-07-14T05:44:24.818Z,20.70
2018-07-14T05:44:57.786Z,20.70
2018-07-14T05:45:30.487Z,20.80
2018-07-14T05:46:03.265Z,20.80
2018-07-14T05:46:35.978Z,20.90
2018-07-14T05:47:08.707Z,20.90
2018-07-14T05:47:41.422Z,20.90
2018-07-14T05:48:14.134Z,20.80
2018-07-14T05:48:46.982Z,20.90
2018-07-14T05:49:19.762Z,20.80
2018-07-14T05:49:52.509Z,20.70
2018-07-14T05:50:25.231Z,20.70
2018-07-14T05:50:57.970Z,20.70
2018-07-14T05:51:30.870Z,20.70
2018-07-14T05:52:03.647Z,20.80
2018-07-14T05:52:36.334Z,20.80
2018-07-14T05:53:09.038Z,20.80
2018-07-14T05:53:41.774Z,20.80
2018-07-14T05:54:14.482Z,20.90
2018-07-14T05:54:47.231Z,21.00
2018-07-14T05:55:19.950Z,21.00
2018-07-14T05:55:52.647Z,21.10
2018-07-14T05:56:25.355Z,21.20
2018-07-14T05:56:58.079Z,21.20
2018-07-14T05:57:30.811Z,21.30
2018-07-14T05:58:03.610Z,21.40
2018-07-14T05:58:36.331Z,21.50
2018-07-14T05:59:09.040Z,21.50
2018-07-14T05:59:41.770Z,21.60
2018-07-14T06:00:14.567Z,21.60
2018-07-14T06:00:47.319Z,21.70
2018-07-14T06:01:20.027Z,21.80
2018-07-14T06:01:52.790Z,21.80
2018-07-14T06:02:25.532Z,21.80
2018-07-14T06:02:58.282Z,21.90
2018-07-14T06:03:31.026Z,22.00
2018-07-14T06:04:03.878Z,22.00
2018-07-14T06:04:36.614Z,22.10
2018-07-14T06:05:09.364Z,22.10
2018-07-14T06:05:42.122Z,22.20
2018-07-14T06:06:14.882Z,22.20
2018-07-14T06:06:47.606Z,22.10
2018-07-14T06:07:20.378Z,22.10
2018-07-14T06:07:53.094Z,22.10
2018-07-14T06:08:25.816Z,22.00
2018-07-14T06:08:58.542Z,22.00
2018-07-14T06:09:31.303Z,22.00
2018-07-14T06:10:04.089Z,22.00
2018-07-14T06:10:36.807Z,22.10
2018-07-14T06:11:09.546Z,22.10
2018-07-14T06:11:42.311Z,22.10
2018-07-14T06:12:15.019Z,22.10
2018-07-14T06:12:47.775Z,22.10
2018-07-14T06:13:20.522Z,22.20
2018-07-14T06:13:53.221Z,22.20
2018-07-14T06:14:25.995Z,22.20
2018-07-14T06:14:58.691Z,22.30
2018-07-14T06:15:31.406Z,22.20
2018-07-14T06:16:04.130Z,22.20
2018-07-14T06:16:37.026Z,22.30
2018-07-14T06:17:09.773Z,22.40
2018-07-14T06:17:42.530Z,22.40
2018-07-14T06:18:15.278Z,22.40
2018-07-14T06:18:48.051Z,22.50
2018-07-14T06:19:20.877Z,22.50
2018-07-14T06:19:53.598Z,22.50
2018-07-14T06:20:26.293Z,22.60
2018-07-14T06:20:59.042Z,22.60
2018-07-14T06:21:31.778Z,22.60
2018-07-14T06:22:04.546Z,22.60
2018-07-14T06:22:37.286Z,22.70
2018-07-14T06:23:10.007Z,22.80
2018-07-14T06:23:42.754Z,22.80
2018-07-14T06:24:15.654Z,22.80
2018-07-14T06:24:48.357Z,22.80
2018-07-14T06:25:21.090Z,22.80
2018-07-14T06:25:53.815Z,22.80
2018-07-14T06:26:26.535Z,22.80
2018-07-14T06:26:59.262Z,22.80
2018-07-14T06:27:32.003Z,22.90
2018-07-14T06:28:37.490Z,22.90
2018-07-14T06:29:10.242Z,22.90
2018-07-14T06:29:42.952Z,22.90
2018-07-14T06:30:15.667Z,22.90
2018-07-14T06:30:48.375Z,22.90
2018-07-14T06:31:21.086Z,22.90
2018-07-14T06:31:53.807Z,22.90
2018-07-14T06:32:26.519Z,22.90
2018-07-14T06:32:59.259Z,22.90
2018-07-14T06:33:32.000Z,23.00
2018-07-14T06:34:05.244Z,22.90
2018-07-14T06:34:37.950Z,22.90
2018-07-14T06:35:10.647Z,22.90
2018-07-14T06:35:43.375Z,22.90
2018-07-14T06:36:16.063Z,22.80
2018-07-14T06:36:48.786Z,22.90
2018-07-14T06:37:21.523Z,22.90
2018-07-14T06:37:54.274Z,23.00
2018-07-14T06:38:27.090Z,23.10
2018-07-14T06:38:59.763Z,23.10
2018-07-14T06:39:32.493Z,23.10
2018-07-14T06:40:05.290Z,23.20
2018-07-14T06:40:37.986Z,23.20
2018-07-14T06:41:10.738Z,23.20
2018-07-14T06:41:43.467Z,23.20
2018-07-14T06:42:16.195Z,23.10
2018-07-14T06:42:48.910Z,23.10
2018-07-14T06:43:21.607Z,23.10
2018-07-14T06:43:54.359Z,23.10
2018-07-14T06:44:27.078Z,23.10
2018-07-14T06:44:59.811Z,23.10
2018-07-14T06:45:32.564Z,23.10
2018-07-14T06:46:05.662Z,23.10
2018-07-14T06:46:38.375Z,23.10
2018-07-14T06:47:11.082Z,23.10
2018-07-14T06:47:43.812Z,23.10
2018-07-14T06:48:16.570Z,23.10
2018-07-14T06:48:49.287Z,23.10
2018-07-14T06:49:22.055Z,23.20
2018-07-14T06:49:54.726Z,23.20
2018-07-14T06:50:27.438Z,23.20
2018-07-14T06:51:00.174Z,23.20
2018-07-14T06:51:32.923Z,23.20
2018-07-14T06:52:05.859Z,23.20
2018-07-14T06:52:38.584Z,23.20
2018-07-14T06:53:11.290Z,23.20
2018-07-14T06:53:44.017Z,23.10
2018-07-14T06:54:16.789Z,23.20
2018-07-14T06:54:49.557Z,23.20
2018-07-14T06:55:22.490Z,23.20
2018-07-14T06:55:55.201Z,23.20
2018-07-14T06:56:27.922Z,23.10
2018-07-14T06:57:00.650Z,23.10
2018-07-14T06:57:33.354Z,23.20
2018-07-14T06:58:06.371Z,23.30
2018-07-14T06:58:39.087Z,23.30
2018-07-14T06:59:11.822Z,23.30
2018-07-14T07:00:17.244Z,23.30
2018-07-14T07:00:49.967Z,23.40
2018-07-14T07:01:22.679Z,23.40
2018-07-14T07:01:55.367Z,23.40
2018-07-14T07:02:28.086Z,23.50
2018-07-14T07:03:00.838Z,23.50
2018-07-14T07:03:33.534Z,23.50
2018-07-14T07:04:06.258Z,23.60
2018-07-14T07:04:39.046Z,23.60
2018-07-14T07:05:11.729Z,23.60
2018-07-14T07:05:44.483Z,23.70
2018-07-14T07:06:17.174Z,23.60
2018-07-14T07:06:49.888Z,23.70
2018-07-14T07:07:22.613Z,23.70
2018-07-14T07:07:55.306Z,23.70
2018-07-14T07:08:28.010Z,23.80
2018-07-14T07:09:00.716Z,23.70
2018-07-14T07:09:33.434Z,23.70
2018-07-14T07:10:06.170Z,23.70
2018-07-14T07:10:38.874Z,23.70
2018-07-14T07:11:12.442Z,23.60
2018-07-14T07:11:45.235Z,23.70
2018-07-14T07:12:18.030Z,23.70
2018-07-14T07:12:50.727Z,23.70
2018-07-14T07:13:23.472Z,23.80
2018-07-14T07:13:56.151Z,23.80
2018-07-14T07:14:28.891Z,23.70
2018-07-14T07:15:01.600Z,23.80
2018-07-14T07:15:34.327Z,23.80
2018-07-14T07:16:07.387Z,23.80
2018-07-14T07:16:40.278Z,23.70
2018-07-14T07:17:12.969Z,23.70
2018-07-14T07:17:45.706Z,23.80
2018-07-14T07:18:18.406Z,23.80
2018-07-14T07:18:51.119Z,23.70
2018-07-14T07:19:23.810Z,23.60
2018-07-14T07:19:56.538Z,23.70
2018-07-14T07:20:29.296Z,23.70
2018-07-14T07:21:02.035Z,23.60
2018-07-14T07:21:34.783Z,23.70
2018-07-14T07:22:07.534Z,23.60
2018-07-14T07:22:40.274Z,23.70
2018-07-14T07:23:12.987Z,23.70
2018-07-14T07:23:45.683Z,23.70
2018-07-14T07:24:18.922Z,23.70
2018-07-14T07:24:51.614Z,23.70
2018-07-14T07:25:24.347Z,23.80
2018-07-14T07:25:57.215Z,23.80
2018-07-14T07:26:29.910Z,23.80
2018-07-14T07:27:02.651Z,23.70
2018-07-14T07:27:35.367Z,23.80
2018-07-14T07:28:08.114Z,23.80
2018-07-14T07:28:40.867Z,23.80
2018-07-14T07:29:13.602Z,23.80
2018-07-14T07:29:46.323Z,23.80
2018-07-14T07:30:19.039Z,23.80
2018-07-14T07:30:51.743Z,23.70
2018-07-14T07:31:24.450Z,23.70
2018-07-14T07:31:57.170Z,23.70
2018-07-14T07:32:29.878Z,23.70
2018-07-14T07:33:03.107Z,23.70
2018-07-14T07:33:35.798Z,23.70
2018-07-14T07:34:08.534Z,23.70
2018-07-14T07:34:41.372Z,23.70
2018-07-14T07:35:13.971Z,23.70
2018-07-14T07:35:46.707Z,23.80
2018-07-14T07:36:19.499Z,23.80
2018-07-14T07:36:52.378Z,23.80
2018-07-14T07:37:25.132Z,23.80
2018-07-14T07:37:57.874Z,23.80
2018-07-14T07:38:30.666Z,23.80
2018-07-14T07:39:04.391Z,23.80
2018-07-14T07:39:37.131Z,23.80
2018-07-14T07:40:09.893Z,23.90
2018-07-14T07:40:43.016Z,23.90
2018-07-14T07:41:15.723Z,23.90
2018-07-14T07:41:48.438Z,23.90
2018-07-14T07:42:21.149Z,23.90
2018-07-14T07:42:53.878Z,23.90
2018-07-14T07:43:26.632Z,23.90
2018-07-14T07:43:59.378Z,23.90
2018-07-14T07:44:32.075Z,24.00
2018-07-14T07:45:05.287Z,24.10
2018-07-14T07:45:38.002Z,24.10
2018-07-14T07:46:10.707Z,24.20
2018-07-14T07:46:43.454Z,24.20
2018-07-14T07:47:16.195Z,24.10
2018-07-14T07:47:48.927Z,24.20
2018-07-14T07:48:21.630Z,24.20
2018-07-14T07:48:54.326Z,24.20
2018-07-14T07:49:27.122Z,24.20
2018-07-14T07:49:59.838Z,24.30
2018-07-14T07:50:32.639Z,24.40
2018-07-14T07:51:05.389Z,24.30
2018-07-14T07:51:38.134Z,24.40
2018-07-14T07:52:10.826Z,24.50
2018-07-14T07:52:43.546Z,24.50
2018-07-14T07:53:16.266Z,24.50
2018-07-14T07:53:49.002Z,24.40
2018-07-14T07:54:21.706Z,24.40
2018-07-14T07:54:54.427Z,24.40
2018-07-14T07:55:27.162Z,24.40
2018-07-14T07:55:59.864Z,24.30
2018-07-14T07:56:32.574Z,24.40
2018-07-14T07:57:05.563Z,24.40
2018-07-14T07:57:38.255Z,24.40
2018-07-14T07:58:10.943Z,24.40